Weather reports worldwide

Advertisment
Baza, Spain (8424): temperature & dewpoint: 10.09.2019 05:00:00 - 16.09.2019 05:00:00 (CEST)Baza, Spain (8424): wind speed & gusts: 10.09.2019 05:00:00 - 16.09.2019 05:00:00 (CEST)Baza, Spain (8424): wind direction: 10.09.2019 05:00:00 - 16.09.2019 05:00:00 (CEST)Baza, Spain (8424): visibility: 10.09.2019 05:00:00 - 16.09.2019 05:00:00 (CEST)Baza, Spain (8424): sunshine duration: 10.09.2019 05:00:00 - 16.09.2019 05:00:00 (CEST)Baza, Spain (8424): precipitation: 10.09.2019 05:00:00 - 16.09.2019 05:00:00 (CEST)
Date & Time tt [°C] td [°C] ff [km/h] ff [kn] fx [km/h] fx [kn] dd vv [km] sd [min] rr [mm]
16.09.2019 05:00:00 - - - - - - - - - -
16.09.2019 04:00:00 18,5 15,5 6 3 10 6 SE 18 0 0,0
16.09.2019 03:00:00 18,9 16,5 6 3 18 10 SE 14 0 0,0
16.09.2019 02:00:00 19,7 17,9 8 5 18 10 S 14 0 -
16.09.2019 01:00:00 20,0 17,9 11 6 20 11 SSE 12 0 0,0
16.09.2019 00:00:00 20,6 18,0 9 5 17 9 SSE 13 0 0,0
15.09.2019 23:00:00 20,7 17,9 10 5 18 10 SSE 14 0 0,0
15.09.2019 22:00:00 21,4 17,8 8 5 15 8 SSE 15 0 0,0
15.09.2019 21:00:00 22,2 18,0 8 5 23 12 S 15 0 0,0
15.09.2019 20:00:00 23,4 17,6 14 8 26 14 SSE 17 8 -
15.09.2019 19:00:00 25,0 17,5 15 8 24 13 SSE 19 17 0,0
15.09.2019 18:00:00 24,3 18,9 9 5 21 11 S 20 0 0,0
15.09.2019 17:00:00 25,8 16,4 6 3 13 7 SW 18 3 0,2
15.09.2019 16:00:00 27,2 16,2 7 4 15 8 NW 20 55 0,0
15.09.2019 15:00:00 27,1 15,8 6 4 15 8 NW 20 60 0,0
15.09.2019 14:00:00 25,4 16,2 7 4 13 7 W 20 60 -
15.09.2019 13:00:00 24,4 16,6 5 3 14 8 ESE 14 60 0,0
15.09.2019 12:00:00 23,0 16,6 6 4 17 9 E 20 45 0,0
15.09.2019 11:00:00 20,5 18,1 6 3 9 5 NNW 15 24 0,2
15.09.2019 10:00:00 18,8 17,1 1 1 8 4 SSE 18 0 0,0
15.09.2019 09:00:00 17,5 16,4 4 2 7 4 S 13 0 0,0
15.09.2019 08:00:00 17,4 16,4 4 2 5 3 S 7 0 -
15.09.2019 07:00:00 17,8 16,6 4 2 6 4 S 12 0 0,0
15.09.2019 06:00:00 18,0 17,1 5 3 7 4 SSE 12 0 0,0
15.09.2019 05:00:00 18,0 16,6 3 1 6 4 W 14 0 0,0
15.09.2019 04:00:00 18,0 16,8 2 1 5 3 NE 17 0 0,0
15.09.2019 03:00:00 17,9 16,7 1 1 5 3 NNE 15 0 0,0
15.09.2019 02:00:00 18,0 16,6 3 1 9 5 E 14 0 -
15.09.2019 01:00:00 18,0 16,8 3 2 7 4 E 16 0 0,0
15.09.2019 00:00:00 17,6 16,5 4 2 8 4 E 14 0 0,2
14.09.2019 23:00:00 18,3 16,3 3 1 9 5 SE 16 0 0,0
14.09.2019 22:00:00 19,0 17,0 5 3 16 9 ENE 19 0 0,0
14.09.2019 21:00:00 19,5 16,7 5 3 14 7 NNE 19 0 0,0
14.09.2019 20:00:00 21,1 16,9 10 5 23 13 SE 19 47 -
14.09.2019 19:00:00 22,5 17,0 17 9 29 16 SE 20 56 0,0
14.09.2019 18:00:00 24,2 17,0 14 8 27 15 SSE 20 59 0,2
14.09.2019 17:00:00 24,8 17,3 15 8 27 15 SE 20 60 0,0
14.09.2019 16:00:00 24,1 17,1 15 8 29 15 SE 20 60 0,0
14.09.2019 15:00:00 23,2 17,2 16 9 32 17 SE 20 54 0,0
14.09.2019 14:00:00 21,0 16,4 17 9 29 15 SE 20 42 -
14.09.2019 13:00:00 18,9 16,0 16 8 23 12 SE 20 25 0,0
14.09.2019 12:00:00 16,6 15,4 6 3 10 5 E 20 0 0,0
14.09.2019 11:00:00 16,1 15,2 5 3 11 6 NNW 20 0 0,0
14.09.2019 10:00:00 15,8 15,0 3 2 9 5 NW 20 0 0,0
14.09.2019 09:00:00 15,5 14,9 3 1 8 5 ESE 20 0 0,2
14.09.2019 08:00:00 15,0 14,3 2 1 7 4 WSW 13 0 -
14.09.2019 07:00:00 14,8 14,0 4 2 7 4 SSW 20 0 0,0
14.09.2019 06:00:00 14,7 13,8 4 2 9 5 ENE 20 0 0,2
14.09.2019 05:00:00 14,6 13,5 4 2 8 4 E 20 0 0,0
14.09.2019 04:00:00 14,7 13,3 4 2 15 8 E 20 0 0,2
14.09.2019 03:00:00 15,1 13,5 8 4 21 12 ESE 20 0 0,2
14.09.2019 02:00:00 15,6 13,3 11 6 20 11 SE 20 0 -
14.09.2019 01:00:00 15,8 13,9 6 3 25 13 ESE 20 0 0,4
14.09.2019 00:00:00 17,0 15,2 6 3 25 13 SE 20 0 0,6
13.09.2019 23:00:00 17,6 16,0 9 5 23 12 NE 20 0 0,6
13.09.2019 22:00:00 17,9 16,7 10 5 20 11 SE 11 0 0,6
13.09.2019 21:00:00 18,4 16,4 8 4 15 8 SSE 20 0 1,0
13.09.2019 20:00:00 19,2 16,2 8 4 18 10 ESE 20 0 -
13.09.2019 19:00:00 20,8 15,2 7 4 23 12 ESE 20 7 1,4
13.09.2019 18:00:00 21,4 14,8 10 5 22 12 ESE 20 25 1,2
13.09.2019 17:00:00 19,9 16,0 9 5 19 10 ESE 20 42 1,6
13.09.2019 16:00:00 15,6 13,9 7 4 34 18 WSW 20 0 2,2
13.09.2019 15:00:00 18,2 15,4 12 6 26 14 S 20 1 3,2
13.09.2019 14:00:00 20,0 15,0 4 2 16 8 WNW 20 35 -
13.09.2019 13:00:00 19,0 14,4 6 3 14 7 E 20 60 3,6
13.09.2019 12:00:00 16,7 13,9 4 2 11 6 SSE 20 60 3,2
13.09.2019 11:00:00 14,1 13,7 4 2 10 5 SE 20 7 3,0
13.09.2019 10:00:00 13,3 12,8 5 3 12 7 SE 20 0 3,2
13.09.2019 09:00:00 13,0 12,5 2 1 8 4 N 8 0 3,6
13.09.2019 08:00:00 13,0 12,5 6 4 18 10 NW 20 0 -
13.09.2019 07:00:00 12,8 12,3 11 6 22 12 SW 1,4 0 4,0
13.09.2019 06:00:00 12,8 12,3 9 5 13 7 NNW 5 0 4,6
13.09.2019 05:00:00 12,9 12,4 6 3 16 9 W 9 0 5,6
13.09.2019 04:00:00 12,9 12,4 15 8 22 12 N 12 0 7,2
13.09.2019 03:00:00 13,3 12,8 4 2 22 12 W 8 0 7,4
13.09.2019 02:00:00 14,2 13,8 7 4 26 14 W 1,1 0 -
13.09.2019 01:00:00 13,5 13,1 10 5 26 14 WSW 3,9 0 2,6
13.09.2019 00:00:00 13,5 13,1 10 5 23 12 NW 11 0 1,6
12.09.2019 23:00:00 13,8 13,4 10 5 28 15 NNW 4,4 0 0,8
12.09.2019 22:00:00 14,1 13,7 12 6 24 13 NNW 11 0 1,2
12.09.2019 21:00:00 15,1 14,6 9 5 32 17 NNW 14 0 1,8
12.09.2019 20:00:00 15,2 14,5 4 2 13 7 W 12 0 -
12.09.2019 19:00:00 14,9 14,1 7 4 13 7 SW 2,0 0 2,4
12.09.2019 18:00:00 15,3 14,3 3 2 19 10 SSW 5 0 1,0
12.09.2019 17:00:00 15,6 14,3 14 8 28 15 NNE 10 0 1,8
12.09.2019 16:00:00 19,2 12,0 10 5 24 13 ENE 20 15 0,0
12.09.2019 15:00:00 18,0 12,8 5 3 12 6 NE 20 0 0,0
12.09.2019 14:00:00 16,1 12,4 3 2 8 5 SW 20 0 -
12.09.2019 13:00:00 15,5 12,2 3 2 7 4 SE 20 0 0,0
12.09.2019 12:00:00 14,9 12,2 2 1 7 4 ENE 20 0 0,0
12.09.2019 11:00:00 13,3 11,7 2 1 14 7 N 20 0 0,0
12.09.2019 10:00:00 12,2 11,6 5 3 9 5 S 20 0 0,0
12.09.2019 09:00:00 11,6 11,1 2 1 9 5 S 20 0 0,2
12.09.2019 08:00:00 11,5 10,9 8 4 14 7 NNE 13 0 -
12.09.2019 07:00:00 11,6 11,0 11 6 17 9 N 11 0 2,4
12.09.2019 06:00:00 11,7 11,1 2 1 7 4 NE 3,6 0 3,8
12.09.2019 05:00:00 12,1 11,4 6 3 9 5 SW 7 0 2,2
12.09.2019 04:00:00 11,5 10,8 3 2 9 5 SSE 8 0 0,8
12.09.2019 03:00:00 11,2 10,4 3 1 5 3 WNW 20 0 0,0
12.09.2019 02:00:00 11,1 10,0 4 2 9 5 WSW 20 0 -
12.09.2019 01:00:00 12,1 10,9 5 3 9 5 SSW 20 0 0,0
12.09.2019 00:00:00 12,5 11,2 7 4 12 7 E 9 0 0,2
11.09.2019 23:00:00 13,4 11,7 6 3 9 5 S 20 0 0,0
11.09.2019 22:00:00 13,9 12,1 4 2 16 8 SSW 16 0 0,8
11.09.2019 21:00:00 15,1 11,3 11 6 44 24 E 9 0 0,2
11.09.2019 20:00:00 17,8 6,1 10 5 22 12 N 20 3 -
11.09.2019 19:00:00 18,0 8,0 5 3 11 6 S 20 0 0,0
11.09.2019 18:00:00 18,3 7,1 8 4 28 15 NW 20 2 0,0
11.09.2019 17:00:00 17,0 8,1 8 4 19 11 WNW 20 0 0,0
11.09.2019 16:00:00 18,2 5,8 13 7 30 16 W 20 32 0,0
11.09.2019 15:00:00 17,6 5,5 18 10 32 17 W 20 38 0,0
11.09.2019 14:00:00 14,5 5,3 18 10 34 18 W 20 0 -
11.09.2019 13:00:00 14,2 4,8 21 11 39 21 W 20 0 0,0
11.09.2019 12:00:00 13,9 4,5 24 13 43 23 W 20 15 0,0
11.09.2019 11:00:00 13,5 4,6 24 13 39 21 W 20 0 0,0
11.09.2019 10:00:00 13,4 4,3 19 11 38 20 W 20 0 0,0
11.09.2019 09:00:00 12,6 4,3 20 11 33 18 W 20 0 0,0
11.09.2019 08:00:00 12,3 4,3 21 11 34 19 W 20 0 -
11.09.2019 07:00:00 11,9 4,1 14 8 26 14 WSW 20 0 0,0
11.09.2019 06:00:00 12,3 3,8 17 9 28 15 W 20 0 0,0
11.09.2019 05:00:00 12,1 3,6 15 8 34 19 W 20 0 0,0
11.09.2019 04:00:00 12,5 3,8 19 10 31 17 W 20 0 0,0
11.09.2019 03:00:00 13,3 3,9 18 10 29 16 W 20 0 0,0
11.09.2019 02:00:00 14,0 3,8 17 9 32 18 W 20 0 -
11.09.2019 01:00:00 14,5 3,6 13 7 38 20 WNW 20 0 0,0
11.09.2019 00:00:00 14,9 2,5 13 7 58 31 N 20 0 0,0
10.09.2019 23:00:00 17,9 -1,4 15 8 34 18 NW 20 0 0,0
10.09.2019 22:00:00 18,4 -1,4 18 10 31 17 NW 20 0 0,0
10.09.2019 21:00:00 18,8 -2,2 22 12 38 21 NW 20 26 0,0
10.09.2019 20:00:00 21,2 -3,3 18 10 41 22 NW 20 60 -
10.09.2019 19:00:00 22,8 -2,7 24 13 38 20 NNW 20 41 0,0
10.09.2019 18:00:00 23,6 -0,7 24 13 48 26 NW 20 45 0,0
10.09.2019 17:00:00 23,1 1,9 29 15 50 27 WNW 20 52 0,0
10.09.2019 16:00:00 22,5 4,5 24 13 44 24 WNW 20 50 0,0
10.09.2019 15:00:00 22,1 5,1 28 15 47 26 WNW 20 60 0,0
10.09.2019 14:00:00 22,0 5,0 25 13 45 25 NNW 20 60 -
10.09.2019 13:00:00 21,4 6,5 21 11 40 22 NW 19 60 0,0
10.09.2019 12:00:00 20,2 5,0 22 12 39 21 WNW 20 51 0,0
10.09.2019 11:00:00 - - - - - - - - - -
10.09.2019 10:00:00 - - - - - - - - - -
10.09.2019 09:00:00 - - - - - - - - - -
10.09.2019 08:00:00 - - - - - - - - - -
10.09.2019 07:00:00 - - - - - - - - - -
10.09.2019 06:00:00 - - - - - - - - - -
10.09.2019 05:00:00 - - - - - - - - - -

tt = temperature
td = dewpoint
ff = wind speed
fx = gusts
dd = wind direction
vv = visibility
sd = sunshine duration
rr = precipitation

Next stations